Terminal Aerodrome Forecast
Issued by NWS Charleston, WV

Current Version | Previous Version | Graphics & Text | Print | Product List | Glossary On
Versions: 1 2 3 4 5 6 7 8 9 10 11 12 13 14 15 16 17 18 19 20 21 22 23
000
FTUS41 KRLX 301744
TAFBKW
TAF
KBKW 301744Z 3018/0118 26010G15KT P6SM VCTS BKN040CB
     FM302000 26011G16KT P6SM VCTS BKN040CB
     FM010100 27007KT P6SM BKN040
     FM011100 25004KT P6SM BKN010
     FM011400 25004KT P6SM SCT020=

USA.gov is the U.S. government's official web portal to all federal, state and local government web resources and services.